createdAt,value
2023-01-17T00:01:34.179Z,65.18
2023-01-17T00:04:19.649Z,65.70
2023-01-17T00:07:05.330Z,65.59
2023-01-17T00:09:50.673Z,65.92
2023-01-17T00:12:17.737Z,66.17
2023-01-17T00:14:44.797Z,66.21
2023-01-17T00:17:11.529Z,66.03
2023-01-17T00:19:57.164Z,65.55
2023-01-17T00:22:48.333Z,65.33
2023-01-17T00:25:39.154Z,65.61
2023-01-17T00:28:06.263Z,64.82
2023-01-17T00:30:33.188Z,64.87
2023-01-17T00:33:00.478Z,64.28
2023-01-17T00:35:29.825Z,64.58
2023-01-17T00:38:05.703Z,65.23
2023-01-17T00:40:33.850Z,65.00
2023-01-17T00:43:19.426Z,65.24
2023-01-17T00:46:05.689Z,65.12
2023-01-17T00:48:53.638Z,64.91
2023-01-17T00:51:40.579Z,64.93
2023-01-17T00:54:26.416Z,65.54
2023-01-17T00:57:12.418Z,65.20
2023-01-17T00:59:58.176Z,64.60
2023-01-17T01:02:44.823Z,65.02
2023-01-17T01:05:32.130Z,64.39
2023-01-17T01:08:17.936Z,64.15
2023-01-17T01:11:04.497Z,64.65
2023-01-17T01:13:51.125Z,64.62
2023-01-17T01:16:37.911Z,63.86
2023-01-17T01:19:23.912Z,63.95
2023-01-17T01:22:09.183Z,64.84
2023-01-17T01:24:54.373Z,64.86
2023-01-17T01:27:40.069Z,64.73
2023-01-17T01:30:25.818Z,65.16
2023-01-17T01:33:11.268Z,65.32
2023-01-17T01:35:38.040Z,65.01
2023-01-17T01:38:05.111Z,65.47
2023-01-17T01:40:31.931Z,65.48
2023-01-17T01:43:00.659Z,65.36
2023-01-17T01:45:30.571Z,65.72
2023-01-17T01:48:27.392Z,66.03
2023-01-17T01:50:54.799Z,66.42
2023-01-17T01:53:22.018Z,67.19
2023-01-17T01:55:51.172Z,67.87
2023-01-17T01:58:25.111Z,67.94
2023-01-17T02:00:52.346Z,68.03
2023-01-17T02:03:29.578Z,68.12
2023-01-17T02:06:04.228Z,68.07
2023-01-17T02:08:31.825Z,67.81
2023-01-17T02:10:58.835Z,68.27
2023-01-17T02:13:25.736Z,67.99
2023-01-17T02:16:06.607Z,68.94
2023-01-17T02:18:45.447Z,69.12
2023-01-17T02:21:23.461Z,68.83
2023-01-17T02:23:59.568Z,68.79
2023-01-17T02:26:51.941Z,69.59
2023-01-17T02:29:46.315Z,70.09
2023-01-17T02:32:35.120Z,69.40
2023-01-17T02:35:23.717Z,69.99
2023-01-17T02:38:16.836Z,70.05
2023-01-17T02:40:47.960Z,71.13
2023-01-17T02:43:17.050Z,70.75
2023-01-17T02:45:44.156Z,70.65
2023-01-17T02:48:14.743Z,70.24
2023-01-17T02:51:16.804Z,70.34
2023-01-17T02:54:02.611Z,70.58
2023-01-17T02:57:10.937Z,70.76
2023-01-17T02:59:56.098Z,71.07
2023-01-17T03:02:28.945Z,71.11
2023-01-17T03:05:09.236Z,71.57
2023-01-17T03:07:40.108Z,71.75
2023-01-17T03:10:08.316Z,72.12
2023-01-17T03:12:38.802Z,72.21
2023-01-17T03:15:13.871Z,71.63
2023-01-17T03:17:50.847Z,72.59
2023-01-17T03:20:18.006Z,73.24
2023-01-17T03:22:44.750Z,72.99
2023-01-17T03:25:11.906Z,73.61
2023-01-17T03:27:38.773Z,73.62
2023-01-17T03:30:06.561Z,73.22
2023-01-17T03:32:33.301Z,73.22
2023-01-17T03:35:00.098Z,72.40
2023-01-17T03:37:26.904Z,72.04
2023-01-17T03:39:53.564Z,72.62
2023-01-17T03:42:20.562Z,71.83
2023-01-17T03:44:47.934Z,72.50
2023-01-17T03:47:14.728Z,72.88
2023-01-17T03:49:41.495Z,73.02
2023-01-17T03:52:08.464Z,73.25
2023-01-17T03:54:35.455Z,73.95
2023-01-17T03:57:02.359Z,73.85
2023-01-17T03:59:29.659Z,73.97
2023-01-17T04:01:58.586Z,73.72
2023-01-17T04:04:25.891Z,73.82
2023-01-17T04:06:55.294Z,74.38
2023-01-17T04:09:22.339Z,74.57
2023-01-17T04:11:51.195Z,74.78
2023-01-17T04:14:18.227Z,75.15
2023-01-17T04:16:45.407Z,75.10
2023-01-17T04:19:13.933Z,75.39
2023-01-17T04:21:40.878Z,76.20
2023-01-17T04:24:07.877Z,76.17
2023-01-17T04:26:34.940Z,76.14
2023-01-17T04:29:04.789Z,76.11
2023-01-17T04:31:31.960Z,75.85
2023-01-17T04:33:58.736Z,76.03
2023-01-17T04:36:25.627Z,76.18
2023-01-17T04:38:52.684Z,77.03
2023-01-17T04:41:19.643Z,77.23
2023-01-17T04:43:46.902Z,78.32
2023-01-17T04:46:14.272Z,78.79
2023-01-17T04:48:41.293Z,78.61
2023-01-17T04:51:08.223Z,79.29
2023-01-17T04:53:35.316Z,80.26
2023-01-17T04:56:02.376Z,80.21
2023-01-17T04:58:30.085Z,79.28
2023-01-17T05:01:02.145Z,79.83
2023-01-17T05:03:29.861Z,80.34
2023-01-17T05:05:57.108Z,79.36
2023-01-17T05:08:24.335Z,78.91
2023-01-17T05:10:51.078Z,80.23
2023-01-17T05:13:18.677Z,80.94
2023-01-17T05:15:46.765Z,80.99
2023-01-17T05:18:18.010Z,80.95
2023-01-17T05:20:45.297Z,80.83
2023-01-17T05:23:12.087Z,80.81
2023-01-17T05:25:44.641Z,81.69
2023-01-17T05:28:13.440Z,81.47
2023-01-17T05:30:40.532Z,81.31
2023-01-17T05:33:08.338Z,83.59
2023-01-17T05:35:35.302Z,84.16
2023-01-17T05:38:02.954Z,83.83
2023-01-17T05:40:31.518Z,83.35
2023-01-17T05:42:59.701Z,82.55
2023-01-17T05:45:28.448Z,83.05
2023-01-17T05:47:56.572Z,83.20
2023-01-17T05:50:32.428Z,83.60
2023-01-17T05:53:03.068Z,83.50
2023-01-17T05:55:30.962Z,83.23
2023-01-17T05:57:57.948Z,83.12
2023-01-17T06:00:24.813Z,83.48
2023-01-17T06:02:55.048Z,82.87
2023-01-17T06:05:23.073Z,82.79
2023-01-17T06:07:50.052Z,83.61
2023-01-17T06:10:18.994Z,83.33
2023-01-17T06:12:46.363Z,84.02
2023-01-17T06:15:14.603Z,84.31
2023-01-17T06:17:41.926Z,84.32
2023-01-17T06:20:12.072Z,83.92
2023-01-17T06:22:38.785Z,84.79
2023-01-17T06:25:07.541Z,84.58
2023-01-17T06:27:34.393Z,84.62
2023-01-17T06:30:01.294Z,85.27
2023-01-17T06:32:28.116Z,86.99
2023-01-17T06:34:54.989Z,86.87
2023-01-17T06:37:21.673Z,86.27
2023-01-17T06:39:49.248Z,87.06
2023-01-17T06:42:16.275Z,86.45
2023-01-17T06:44:43.256Z,86.33
2023-01-17T06:47:09.972Z,88.02
2023-01-17T06:49:36.812Z,87.70
2023-01-17T06:52:04.117Z,87.97
2023-01-17T06:54:30.835Z,88.32
2023-01-17T06:56:57.563Z,88.52
2023-01-17T06:59:24.369Z,88.55
2023-01-17T07:01:51.248Z,88.31
2023-01-17T07:04:17.879Z,87.42
2023-01-17T07:06:44.917Z,88.09
2023-01-17T07:09:12.601Z,87.87
2023-01-17T07:11:39.302Z,87.49
2023-01-17T07:14:06.015Z,86.90
2023-01-17T07:16:34.179Z,87.82
2023-01-17T07:19:01.014Z,86.04
2023-01-17T07:21:27.907Z,84.77
2023-01-17T07:23:54.724Z,85.76
2023-01-17T07:26:21.724Z,84.84
2023-01-17T07:28:48.534Z,83.09
2023-01-17T07:31:15.259Z,81.82
2023-01-17T07:33:41.932Z,82.39
2023-01-17T07:36:09.476Z,82.29
2023-01-17T07:38:36.421Z,82.21
2023-01-17T07:41:06.965Z,81.50
2023-01-17T07:43:35.659Z,81.69
2023-01-17T07:46:02.461Z,82.19
2023-01-17T07:48:30.826Z,82.91
2023-01-17T07:50:58.538Z,84.16
2023-01-17T07:53:27.121Z,83.32
2023-01-17T07:55:54.469Z,85.84
2023-01-17T07:58:22.069Z,82.62
2023-01-17T08:00:49.044Z,83.32
2023-01-17T08:03:17.536Z,83.84
2023-01-17T08:05:53.100Z,81.89
2023-01-17T08:08:21.577Z,82.28
2023-01-17T08:10:49.560Z,82.13
2023-01-17T08:13:16.268Z,81.11
2023-01-17T08:15:43.124Z,82.78
2023-01-17T08:18:10.019Z,82.37
2023-01-17T08:20:36.739Z,81.96
2023-01-17T08:23:03.449Z,82.56
2023-01-17T08:25:30.207Z,81.25
2023-01-17T08:27:58.146Z,82.38
2023-01-17T08:30:24.925Z,83.58
2023-01-17T08:32:51.903Z,83.91
2023-01-17T08:35:20.198Z,84.94
2023-01-17T08:37:48.602Z,84.59
2023-01-17T08:40:18.126Z,84.06
2023-01-17T08:42:45.559Z,82.45
2023-01-17T08:45:14.954Z,83.58
2023-01-17T08:47:41.805Z,83.07
2023-01-17T08:50:09.305Z,82.25
2023-01-17T08:52:36.372Z,81.29
2023-01-17T08:55:05.954Z,81.37
2023-01-17T08:57:33.442Z,79.26
2023-01-17T09:00:00.400Z,79.16
2023-01-17T09:02:27.111Z,80.02
2023-01-17T09:04:53.881Z,78.81
2023-01-17T09:07:21.292Z,80.12
2023-01-17T09:09:49.018Z,79.07
2023-01-17T09:12:15.999Z,78.02
2023-01-17T09:14:42.752Z,77.67
2023-01-17T09:17:09.367Z,77.12
2023-01-17T09:19:38.930Z,76.90
2023-01-17T09:22:06.785Z,76.51
2023-01-17T09:24:36.079Z,75.85
2023-01-17T09:27:04.073Z,74.69
2023-01-17T09:29:31.067Z,74.44
2023-01-17T09:31:57.912Z,72.94
2023-01-17T09:34:25.078Z,73.47
2023-01-17T09:36:51.851Z,74.77
2023-01-17T09:39:21.751Z,72.01
2023-01-17T09:42:00.969Z,72.63
2023-01-17T09:44:46.673Z,71.49
2023-01-17T09:47:33.821Z,70.53
2023-01-17T09:50:20.802Z,70.84
2023-01-17T09:52:47.694Z,71.01
2023-01-17T09:55:19.747Z,70.64
2023-01-17T09:57:52.325Z,70.01
2023-01-17T10:00:54.187Z,69.13
2023-01-17T10:03:37.701Z,69.77
2023-01-17T10:06:25.208Z,69.10
2023-01-17T10:08:59.799Z,68.88
2023-01-17T10:11:53.177Z,69.21
2023-01-17T10:14:23.294Z,68.45
2023-01-17T10:17:04.810Z,67.58
2023-01-17T10:19:43.613Z,67.88
2023-01-17T10:22:33.047Z,67.46
2023-01-17T10:25:14.780Z,67.75
2023-01-17T10:27:50.991Z,67.06
2023-01-17T10:30:35.166Z,67.70
2023-01-17T10:33:24.079Z,67.92
2023-01-17T10:35:59.652Z,68.02
2023-01-17T10:38:48.158Z,67.00
2023-01-17T10:41:24.463Z,67.41
2023-01-17T10:44:04.696Z,66.62
2023-01-17T10:46:52.790Z,67.04
2023-01-17T10:49:26.180Z,67.06
2023-01-17T10:52:02.056Z,67.03
2023-01-17T10:54:56.681Z,66.81
2023-01-17T10:57:27.199Z,67.34
2023-01-17T10:59:59.341Z,66.70
2023-01-17T11:02:33.066Z,66.62
2023-01-17T11:05:09.858Z,66.03
2023-01-17T11:07:48.159Z,66.33
2023-01-17T11:10:40.188Z,65.76
2023-01-17T11:13:25.407Z,65.18
2023-01-17T11:15:59.706Z,65.13
2023-01-17T11:18:35.828Z,64.80
2023-01-17T11:21:23.381Z,65.43
2023-01-17T11:23:52.682Z,62.67
2023-01-17T11:26:33.364Z,62.02
2023-01-17T11:29:20.249Z,62.41
2023-01-17T11:31:47.065Z,62.46
2023-01-17T11:34:18.079Z,62.34
2023-01-17T11:36:45.395Z,61.95
2023-01-17T11:39:18.073Z,63.15
2023-01-17T11:41:47.933Z,62.39
2023-01-17T11:44:32.531Z,63.04
2023-01-17T11:47:14.555Z,62.67
2023-01-17T11:49:45.434Z,63.15
2023-01-17T11:52:36.605Z,62.67
2023-01-17T11:55:03.395Z,62.56
2023-01-17T11:57:33.492Z,61.29
2023-01-17T12:00:02.779Z,61.48
2023-01-17T12:02:58.189Z,61.46
2023-01-17T12:05:40.437Z,62.61
2023-01-17T12:08:35.033Z,61.81
2023-01-17T12:11:14.796Z,61.75
2023-01-17T12:14:02.946Z,62.27
2023-01-17T12:16:57.531Z,61.66
2023-01-17T12:19:43.789Z,60.90
2023-01-17T12:22:37.724Z,60.22
2023-01-17T12:25:22.584Z,60.32
2023-01-17T12:28:07.512Z,60.80
2023-01-17T12:31:00.462Z,60.36
2023-01-17T12:33:53.511Z,60.38
2023-01-17T12:36:36.780Z,59.18
2023-01-17T12:39:07.916Z,59.59
2023-01-17T12:41:46.309Z,58.61
2023-01-17T12:44:17.159Z,60.43
2023-01-17T12:46:49.530Z,59.74
2023-01-17T12:49:21.483Z,59.68
2023-01-17T12:52:05.738Z,59.03
2023-01-17T12:54:45.455Z,58.83
2023-01-17T12:57:18.889Z,60.85
2023-01-17T13:00:12.713Z,60.03
2023-01-17T13:02:49.932Z,61.18
2023-01-17T13:05:26.127Z,60.76
2023-01-17T13:08:02.049Z,60.74
2023-01-17T13:10:30.948Z,61.08
2023-01-17T13:13:03.505Z,60.85
2023-01-17T13:15:37.671Z,61.45
2023-01-17T13:18:17.492Z,60.72
2023-01-17T13:21:14.505Z,60.71
2023-01-17T13:23:56.655Z,60.56
2023-01-17T13:26:40.343Z,59.87
2023-01-17T13:29:52.408Z,60.08
2023-01-17T13:32:37.539Z,60.66
2023-01-17T13:35:42.172Z,60.17
2023-01-17T13:38:34.918Z,61.23
2023-01-17T13:41:16.310Z,60.67
2023-01-17T13:44:06.059Z,60.66
2023-01-17T13:46:56.305Z,60.60
2023-01-17T13:49:29.212Z,60.76
2023-01-17T13:52:10.936Z,61.30
2023-01-17T13:54:46.268Z,61.60
2023-01-17T13:57:29.991Z,61.49
2023-01-17T13:59:59.226Z,61.55
2023-01-17T14:02:32.128Z,61.20
2023-01-17T14:05:24.229Z,61.32
2023-01-17T14:08:14.377Z,61.58
2023-01-17T14:10:54.705Z,61.66
2023-01-17T14:13:35.495Z,61.86
2023-01-17T14:16:06.597Z,62.30
2023-01-17T14:18:36.958Z,61.92
2023-01-17T14:21:31.940Z,62.50
2023-01-17T14:24:15.276Z,62.18
2023-01-17T14:26:57.774Z,63.04
2023-01-17T14:29:42.738Z,62.93
2023-01-17T14:32:15.694Z,63.16
2023-01-17T14:34:45.248Z,64.11
2023-01-17T14:37:33.041Z,64.61
2023-01-17T14:40:01.084Z,64.08
2023-01-17T14:42:30.617Z,64.47
2023-01-17T14:45:07.720Z,64.59
2023-01-17T14:47:41.478Z,64.32
2023-01-17T14:50:21.069Z,63.96
2023-01-17T14:53:14.129Z,64.53
2023-01-17T14:55:57.800Z,64.45
2023-01-17T14:58:33.421Z,64.44
2023-01-17T15:01:13.378Z,64.41
2023-01-17T15:03:50.151Z,65.42
2023-01-17T15:06:23.197Z,65.24
2023-01-17T15:08:54.834Z,66.55
2023-01-17T15:11:30.598Z,65.99
2023-01-17T15:13:59.473Z,66.54
2023-01-17T15:16:28.938Z,66.54
2023-01-17T15:18:57.531Z,66.57
2023-01-17T15:21:40.891Z,66.83
2023-01-17T15:24:13.470Z,66.87
2023-01-17T15:26:43.496Z,67.63
2023-01-17T15:29:17.664Z,66.46
2023-01-17T15:31:52.594Z,66.42
2023-01-17T15:34:30.386Z,67.03
2023-01-17T15:37:00.128Z,66.08
2023-01-17T15:39:32.900Z,65.25
2023-01-17T15:42:03.094Z,65.64
2023-01-17T15:44:48.088Z,66.22
2023-01-17T15:47:31.636Z,64.44
2023-01-17T15:50:00.891Z,64.70
2023-01-17T15:52:29.184Z,65.91
2023-01-17T15:55:13.886Z,65.70
2023-01-17T15:57:40.981Z,66.43
2023-01-17T16:00:13.715Z,65.99
2023-01-17T16:02:45.581Z,65.93
2023-01-17T16:05:30.974Z,67.33
2023-01-17T16:08:02.642Z,66.77
2023-01-17T16:10:32.112Z,67.87
2023-01-17T16:13:00.857Z,69.28
2023-01-17T16:15:29.427Z,69.23
2023-01-17T16:18:04.879Z,70.43
2023-01-17T16:20:39.439Z,70.79
2023-01-17T16:23:06.803Z,72.38
2023-01-17T16:25:33.618Z,72.19
2023-01-17T16:28:01.640Z,72.41
2023-01-17T16:30:29.770Z,73.64
2023-01-17T16:33:01.776Z,72.48
2023-01-17T16:35:32.462Z,73.29
2023-01-17T16:38:05.441Z,74.72
2023-01-17T16:40:39.059Z,74.02
2023-01-17T16:43:06.011Z,74.39
2023-01-17T16:45:40.532Z,74.48
2023-01-17T16:48:08.095Z,75.45
2023-01-17T16:50:34.984Z,75.90
2023-01-17T16:53:01.659Z,76.03
2023-01-17T16:55:28.408Z,75.71
2023-01-17T16:57:58.255Z,75.80
2023-01-17T17:00:26.991Z,76.31
2023-01-17T17:02:54.258Z,77.26
2023-01-17T17:05:21.041Z,77.01
2023-01-17T17:07:51.530Z,77.55
2023-01-17T17:10:20.768Z,78.03
2023-01-17T17:12:48.230Z,78.32
2023-01-17T17:15:15.201Z,78.92
2023-01-17T17:17:43.682Z,80.16
2023-01-17T17:20:14.147Z,79.56
2023-01-17T17:22:45.756Z,80.02
2023-01-17T17:25:13.444Z,79.81
2023-01-17T17:27:40.314Z,79.15
2023-01-17T17:30:08.364Z,79.36
2023-01-17T17:32:35.355Z,79.35
2023-01-17T17:35:02.100Z,80.67
2023-01-17T17:37:29.344Z,80.06
2023-01-17T17:39:57.022Z,80.09
2023-01-17T17:42:24.073Z,79.38
2023-01-17T17:44:50.981Z,78.75
2023-01-17T17:47:18.114Z,78.01
2023-01-17T17:49:45.221Z,77.28
2023-01-17T17:52:12.357Z,76.95
2023-01-17T17:54:39.062Z,76.23
2023-01-17T17:57:06.848Z,75.71
2023-01-17T17:59:34.304Z,75.65
2023-01-17T18:02:01.408Z,76.74
2023-01-17T18:04:31.073Z,76.03
2023-01-17T18:06:58.422Z,76.19
2023-01-17T18:09:25.612Z,76.16
2023-01-17T18:11:52.763Z,76.12
2023-01-17T18:14:21.356Z,76.65
2023-01-17T18:16:48.488Z,76.69
2023-01-17T18:19:18.909Z,76.25
2023-01-17T18:21:45.955Z,76.98
2023-01-17T18:24:14.806Z,77.89
2023-01-17T18:26:46.895Z,78.37
2023-01-17T18:29:15.940Z,78.64
2023-01-17T18:31:47.662Z,79.27
2023-01-17T18:34:17.129Z,80.26
2023-01-17T18:36:44.699Z,78.97
2023-01-17T18:39:14.537Z,79.76
2023-01-17T18:41:41.655Z,79.39
2023-01-17T18:44:09.162Z,77.91
2023-01-17T18:46:36.747Z,76.64
2023-01-17T18:49:04.739Z,75.36
2023-01-17T18:51:32.704Z,75.12
2023-01-17T18:54:05.902Z,75.54
2023-01-17T18:56:34.338Z,75.79
2023-01-17T18:59:02.004Z,73.75
2023-01-17T19:01:33.600Z,72.28
2023-01-17T19:04:04.230Z,71.87
2023-01-17T19:06:37.625Z,71.63
2023-01-17T19:09:05.145Z,70.65
2023-01-17T19:11:32.243Z,70.63
2023-01-17T19:13:59.283Z,70.18
2023-01-17T19:16:29.653Z,71.25
2023-01-17T19:18:58.080Z,69.99
2023-01-17T19:21:27.607Z,70.02
2023-01-17T19:23:56.263Z,69.48
2023-01-17T19:26:26.695Z,68.90
2023-01-17T19:28:56.545Z,68.23
2023-01-17T19:31:26.514Z,67.16
2023-01-17T19:33:57.519Z,67.08
2023-01-17T19:36:31.807Z,66.30
2023-01-17T19:39:04.946Z,65.78
2023-01-17T19:41:35.506Z,65.97
2023-01-17T19:44:05.297Z,65.40
2023-01-17T19:46:32.723Z,65.66
2023-01-17T19:49:00.657Z,65.34
2023-01-17T19:51:28.238Z,65.74
2023-01-17T19:53:55.220Z,66.06
2023-01-17T19:56:25.145Z,66.43
2023-01-17T19:58:52.667Z,66.70
2023-01-17T20:01:26.909Z,65.42
2023-01-17T20:03:56.059Z,65.65
2023-01-17T20:06:30.098Z,65.36
2023-01-17T20:08:59.884Z,66.37
2023-01-17T20:11:27.735Z,67.44
2023-01-17T20:13:55.719Z,68.47
2023-01-17T20:16:25.242Z,67.49
2023-01-17T20:18:53.382Z,67.93
2023-01-17T20:21:23.875Z,67.53
2023-01-17T20:23:53.067Z,68.86
2023-01-17T20:26:25.801Z,70.20
2023-01-17T20:28:53.574Z,70.46
2023-01-17T20:31:22.914Z,71.25
2023-01-17T20:33:51.046Z,70.71
2023-01-17T20:36:19.780Z,71.65
2023-01-17T20:38:46.883Z,72.09
2023-01-17T20:41:21.356Z,73.01
2023-01-17T20:43:56.033Z,71.30
2023-01-17T20:46:26.114Z,72.09
2023-01-17T20:48:55.233Z,72.39
2023-01-17T20:51:24.741Z,73.01
2023-01-17T20:53:55.968Z,72.34
2023-01-17T20:56:23.339Z,73.46
2023-01-17T20:58:52.750Z,73.29
2023-01-17T21:01:21.410Z,73.56
2023-01-17T21:03:52.107Z,74.03
2023-01-17T21:06:20.182Z,73.95
2023-01-17T21:08:48.204Z,75.27
2023-01-17T21:11:19.089Z,75.30
2023-01-17T21:13:48.835Z,76.25
2023-01-17T21:16:20.479Z,77.08
2023-01-17T21:18:48.978Z,76.23
2023-01-17T21:21:18.960Z,75.73
2023-01-17T21:23:49.606Z,75.61
2023-01-17T21:26:17.923Z,76.63
2023-01-17T21:28:47.562Z,76.30
2023-01-17T21:31:23.319Z,75.46
2023-01-17T21:34:08.363Z,74.97
2023-01-17T21:36:40.843Z,75.84
2023-01-17T21:39:12.887Z,75.23
2023-01-17T21:41:41.992Z,75.64
2023-01-17T21:44:14.065Z,76.10
2023-01-17T21:46:41.613Z,76.67
2023-01-17T21:49:13.100Z,74.91
2023-01-17T21:51:53.649Z,74.23
2023-01-17T21:54:44.535Z,75.43
2023-01-17T21:57:40.705Z,75.02
2023-01-17T22:00:14.725Z,73.60
2023-01-17T22:02:42.145Z,72.71
2023-01-17T22:05:10.187Z,72.00
2023-01-17T22:07:39.113Z,71.24
2023-01-17T22:10:07.118Z,70.20
2023-01-17T22:12:33.985Z,70.09
2023-01-17T22:15:00.868Z,69.67
2023-01-17T22:17:29.530Z,70.77
2023-01-17T22:19:56.315Z,70.02
2023-01-17T22:22:22.983Z,69.06
2023-01-17T22:24:50.677Z,69.34
2023-01-17T22:27:17.626Z,68.30
2023-01-17T22:29:44.441Z,68.53
2023-01-17T22:32:11.336Z,68.91
2023-01-17T22:34:38.288Z,68.51
2023-01-17T22:37:10.177Z,68.40
2023-01-17T22:39:38.861Z,68.04
2023-01-17T22:42:07.927Z,67.63
2023-01-17T22:44:34.735Z,68.10
2023-01-17T22:47:01.634Z,68.55
2023-01-17T22:49:28.644Z,66.84
2023-01-17T22:51:55.320Z,67.28
2023-01-17T22:54:22.608Z,66.38
2023-01-17T22:56:49.621Z,66.90
2023-01-17T22:59:16.439Z,66.96
2023-01-17T23:01:43.607Z,67.13
2023-01-17T23:04:13.964Z,67.75
2023-01-17T23:06:41.838Z,67.65
2023-01-17T23:09:12.646Z,67.21
2023-01-17T23:11:47.399Z,68.23
2023-01-17T23:14:53.523Z,68.37
2023-01-17T23:17:40.834Z,69.47
2023-01-17T23:20:10.597Z,69.53
2023-01-17T23:22:38.212Z,69.37
2023-01-17T23:25:07.202Z,69.91
2023-01-17T23:27:55.695Z,70.18
2023-01-17T23:30:25.311Z,70.56
2023-01-17T23:32:54.371Z,70.54
2023-01-17T23:35:25.484Z,71.26
2023-01-17T23:38:11.230Z,71.48
2023-01-17T23:40:39.470Z,72.22
2023-01-17T23:43:25.738Z,72.24
2023-01-17T23:45:54.845Z,71.51
2023-01-17T23:48:26.658Z,70.11
2023-01-17T23:50:58.876Z,70.49
2023-01-17T23:53:26.191Z,70.31
2023-01-17T23:55:55.329Z,67.78
2023-01-17T23:58:25.923Z,67.86
